KCDJ

Chillicothe Agri-Science Center Airport

Chillicothe, Missouri, USA
METAR KCDJ 221952Z AUTO 00000KT 21/11 A3011 RMK AO1 SLP195 T02110106
Observed Flight Rules
Oct-22 @ 19:52 UTC (56 minutes ago)
Temperatures Readings
Current 21°C / 70°F
Dewpoint 11°C / 52°F
Humidity 53%
Altimeter 30.11" Hg
Pressure 1019.5 hPa
Elevation 234
METAR KCDJ 221952Z AUTO 00000KT 21/11 A3011 RMK AO1 SLP195 T02110106
Observed Flight Rules
Oct-22 @ 19:52 UTC
(56 minutes ago)
Temperature Dewpoint
21°C / 70°F 11°C / 52°F
Humidity Altimeter Pressure
53% 30.11" Hg 1019.5 hPa